sensor_id;sensor_type;location;lat;lon;timestamp;pressure;altitude;pressure_sealevel;temperature;humidity
71559;BME280;59382;43.852;25.952;2023-08-01T00:00:05;100726.69;;;26.05;56.35
71559;BME280;59382;43.852;25.952;2023-08-01T00:02:35;100720.34;;;26.05;56.39
71559;BME280;59382;43.852;25.952;2023-08-01T00:05:01;100728.31;;;26.06;56.44
71559;BME280;59382;43.852;25.952;2023-08-01T00:07:27;100708.28;;;26.01;56.45
71559;BME280;59382;43.852;25.952;2023-08-01T00:09:53;100711.53;;;26.03;56.35
71559;BME280;59382;43.852;25.952;2023-08-01T00:12:18;100718.09;;;26.07;56.37
71559;BME280;59382;43.852;25.952;2023-08-01T00:14:44;100706.00;;;26.03;56.63
71559;BME280;59382;43.852;25.952;2023-08-01T00:17:09;100710.91;;;26.06;56.47
71559;BME280;59382;43.852;25.952;2023-08-01T00:19:35;100685.09;;;25.97;56.47
71559;BME280;59382;43.852;25.952;2023-08-01T00:22:01;100701.28;;;26.03;56.52
71559;BME280;59382;43.852;25.952;2023-08-01T00:24:26;100695.75;;;26.03;56.52
71559;BME280;59382;43.852;25.952;2023-08-01T00:26:52;100704.56;;;26.05;56.75
71559;BME280;59382;43.852;25.952;2023-08-01T00:29:20;100687.78;;;26.02;56.56
71559;BME280;59382;43.852;25.952;2023-08-01T00:31:46;100682.88;;;25.99;56.92
71559;BME280;59382;43.852;25.952;2023-08-01T00:34:12;100698.22;;;26.05;56.99
71559;BME280;59382;43.852;25.952;2023-08-01T00:36:37;100697.38;;;26.04;56.77
71559;BME280;59382;43.852;25.952;2023-08-01T00:39:02;100692.31;;;25.98;56.96
71559;BME280;59382;43.852;25.952;2023-08-01T00:41:28;100694.53;;;25.96;57.02
71559;BME280;59382;43.852;25.952;2023-08-01T00:43:53;100692.31;;;25.98;57.09
71559;BME280;59382;43.852;25.952;2023-08-01T00:46:19;100683.91;;;25.89;57.54
71559;BME280;59382;43.852;25.952;2023-08-01T00:48:45;100680.44;;;25.84;57.74
71559;BME280;59382;43.852;25.952;2023-08-01T00:51:11;100693.66;;;25.87;57.67
71559;BME280;59382;43.852;25.952;2023-08-01T00:53:37;100676.16;;;25.78;57.57
71559;BME280;59382;43.852;25.952;2023-08-01T00:56:03;100679.25;;;25.76;57.77
71559;BME280;59382;43.852;25.952;2023-08-01T00:58:29;100691.13;;;25.77;57.37
71559;BME280;59382;43.852;25.952;2023-08-01T01:00:55;100655.03;;;25.60;57.84
71559;BME280;59382;43.852;25.952;2023-08-01T01:03:22;100667.44;;;25.62;57.25
71559;BME280;59382;43.852;25.952;2023-08-01T01:06:01;100681.75;;;25.64;57.51
71559;BME280;59382;43.852;25.952;2023-08-01T01:08:31;100665.19;;;25.51;57.57
71559;BME280;59382;43.852;25.952;2023-08-01T01:10:57;100672.75;;;25.59;57.53
71559;BME280;59382;43.852;25.952;2023-08-01T01:13:22;100669.63;;;25.52;57.33
71559;BME280;59382;43.852;25.952;2023-08-01T01:15:48;100652.75;;;25.40;57.12
71559;BME280;59382;43.852;25.952;2023-08-01T01:18:13;100665.63;;;25.44;57.01
71559;BME280;59382;43.852;25.952;2023-08-01T01:20:39;100650.94;;;25.35;57.02
71559;BME280;59382;43.852;25.952;2023-08-01T01:23:05;100635.34;;;25.26;57.14
71559;BME280;59382;43.852;25.952;2023-08-01T01:25:34;100641.09;;;25.29;57.25
71559;BME280;59382;43.852;25.952;2023-08-01T01:28:04;100654.00;;;25.34;56.97
71559;BME280;59382;43.852;25.952;2023-08-01T01:30:31;100652.44;;;25.28;56.79
71559;BME280;59382;43.852;25.952;2023-08-01T01:33:00;100657.25;;;25.22;56.80
71559;BME280;59382;43.852;25.952;2023-08-01T01:35:26;100649.69;;;25.14;56.96
71559;BME280;59382;43.852;25.952;2023-08-01T01:37:52;100651.94;;;25.12;57.09
71559;BME280;59382;43.852;25.952;2023-08-01T01:40:17;100658.22;;;25.04;57.25
71559;BME280;59382;43.852;25.952;2023-08-01T01:42:44;100647.66;;;24.92;57.04
71559;BME280;59382;43.852;25.952;2023-08-01T01:45:09;100659.31;;;24.89;57.24
71559;BME280;59382;43.852;25.952;2023-08-01T01:47:35;100657.47;;;24.85;57.55
71559;BME280;59382;43.852;25.952;2023-08-01T01:50:00;100644.50;;;24.72;57.59
71559;BME280;59382;43.852;25.952;2023-08-01T01:52:26;100651.75;;;24.68;57.74
71559;BME280;59382;43.852;25.952;2023-08-01T01:54:51;100663.03;;;24.71;57.69
71559;BME280;59382;43.852;25.952;2023-08-01T01:57:17;100665.34;;;24.64;57.49
71559;BME280;59382;43.852;25.952;2023-08-01T01:59:42;100658.78;;;24.60;57.46
71559;BME280;59382;43.852;25.952;2023-08-01T02:02:08;100661.13;;;24.53;57.54
71559;BME280;59382;43.852;25.952;2023-08-01T02:04:33;100663.88;;;24.53;58.07
71559;BME280;59382;43.852;25.952;2023-08-01T02:06:59;100652.94;;;24.48;58.05
71559;BME280;59382;43.852;25.952;2023-08-01T02:09:24;100642.09;;;24.38;57.83
71559;BME280;59382;43.852;25.952;2023-08-01T02:11:50;100668.28;;;24.54;57.99
71559;BME280;59382;43.852;25.952;2023-08-01T02:14:15;100673.19;;;24.57;58.06
71559;BME280;59382;43.852;25.952;2023-08-01T02:16:41;100660.06;;;24.49;57.77
71559;BME280;59382;43.852;25.952;2023-08-01T02:19:06;100653.94;;;24.52;57.89
71559;BME280;59382;43.852;25.952;2023-08-01T02:21:32;100647.50;;;24.43;57.75
71559;BME280;59382;43.852;25.952;2023-08-01T02:23:57;100664.97;;;24.52;57.70
71559;BME280;59382;43.852;25.952;2023-08-01T02:26:23;100638.28;;;24.34;57.96
71559;BME280;59382;43.852;25.952;2023-08-01T02:28:50;100680.94;;;24.55;57.91
71559;BME280;59382;43.852;25.952;2023-08-01T02:31:16;100676.13;;;24.47;57.86
71559;BME280;59382;43.852;25.952;2023-08-01T02:33:41;100671.72;;;24.46;57.83
71559;BME280;59382;43.852;25.952;2023-08-01T02:36:07;100670.63;;;24.47;58.14
71559;BME280;59382;43.852;25.952;2023-08-01T02:38:33;100677.69;;;24.53;58.20
71559;BME280;59382;43.852;25.952;2023-08-01T02:40:58;100668.88;;;24.51;58.10
71559;BME280;59382;43.852;25.952;2023-08-01T02:43:23;100678.63;;;24.62;58.17
71559;BME280;59382;43.852;25.952;2023-08-01T02:45:49;100675.56;;;24.64;58.01
71559;BME280;59382;43.852;25.952;2023-08-01T02:48:16;100657.84;;;24.51;57.94
71559;BME280;59382;43.852;25.952;2023-08-01T02:50:41;100679.13;;;24.64;58.07
71559;BME280;59382;43.852;25.952;2023-08-01T02:53:07;100683.59;;;24.60;57.88
71559;BME280;59382;43.852;25.952;2023-08-01T02:55:33;100685.69;;;24.68;57.89
71559;BME280;59382;43.852;25.952;2023-08-01T02:57:58;100672.50;;;24.65;57.73
71559;BME280;59382;43.852;25.952;2023-08-01T03:00:24;100676.91;;;24.66;57.60
71559;BME280;59382;43.852;25.952;2023-08-01T03:02:49;100670.25;;;24.67;57.61
71559;BME280;59382;43.852;25.952;2023-08-01T03:05:15;100693.66;;;24.83;57.64
71559;BME280;59382;43.852;25.952;2023-08-01T03:07:40;100686.13;;;24.89;57.42
71559;BME280;59382;43.852;25.952;2023-08-01T03:10:06;100695.72;;;24.91;57.64
71559;BME280;59382;43.852;25.952;2023-08-01T03:12:32;100690.09;;;24.96;57.32
71559;BME280;59382;43.852;25.952;2023-08-01T03:14:58;100697.78;;;24.99;57.29
71559;BME280;59382;43.852;25.952;2023-08-01T03:17:23;100706.56;;;25.01;57.11
71559;BME280;59382;43.852;25.952;2023-08-01T03:19:49;100686.22;;;24.97;57.10
71559;BME280;59382;43.852;25.952;2023-08-01T03:22:15;100709.13;;;25.12;57.09
71559;BME280;59382;43.852;25.952;2023-08-01T03:24:41;100710.22;;;25.11;57.42
71559;BME280;59382;43.852;25.952;2023-08-01T03:27:07;100707.16;;;25.12;57.11
71559;BME280;59382;43.852;25.952;2023-08-01T03:29:32;100710.97;;;25.16;57.24
71559;BME280;59382;43.852;25.952;2023-08-01T03:31:58;100717.81;;;25.19;57.34
71559;BME280;59382;43.852;25.952;2023-08-01T03:34:25;100709.53;;;25.19;57.41
71559;BME280;59382;43.852;25.952;2023-08-01T03:36:52;100708.53;;;25.15;57.33
71559;BME280;59382;43.852;25.952;2023-08-01T03:39:18;100714.94;;;25.24;56.82
71559;BME280;59382;43.852;25.952;2023-08-01T03:41:43;100676.72;;;25.03;57.23
71559;BME280;59382;43.852;25.952;2023-08-01T03:44:09;100697.88;;;25.22;56.83
71559;BME280;59382;43.852;25.952;2023-08-01T03:46:34;100717.00;;;25.32;57.05
71559;BME280;59382;43.852;25.952;2023-08-01T03:49:00;100715.97;;;25.28;57.07
71559;BME280;59382;43.852;25.952;2023-08-01T03:51:25;100711.47;;;25.32;56.90
71559;BME280;59382;43.852;25.952;2023-08-01T03:53:52;100719.06;;;25.40;56.60
71559;BME280;59382;43.852;25.952;2023-08-01T03:56:17;100718.22;;;25.39;56.98
71559;BME280;59382;43.852;25.952;2023-08-01T03:58:43;100716.00;;;25.41;56.76
71559;BME280;59382;43.852;25.952;2023-08-01T04:01:09;100704.50;;;25.34;56.79
71559;BME280;59382;43.852;25.952;2023-08-01T04:03:34;100710.16;;;25.43;56.86
71559;BME280;59382;43.852;25.952;2023-08-01T04:06:00;100705.72;;;25.42;56.68
71559;BME280;59382;43.852;25.952;2023-08-01T04:08:25;100705.13;;;25.45;56.61
71559;BME280;59382;43.852;25.952;2023-08-01T04:10:51;100701.97;;;25.38;56.59
71559;BME280;59382;43.852;25.952;2023-08-01T04:13:16;100710.78;;;25.40;56.61
71559;BME280;59382;43.852;25.952;2023-08-01T04:15:42;100705.34;;;25.35;56.68
71559;BME280;59382;43.852;25.952;2023-08-01T04:18:07;100716.59;;;25.38;56.78
71559;BME280;59382;43.852;25.952;2023-08-01T04:20:33;100713.53;;;25.40;57.07
71559;BME280;59382;43.852;25.952;2023-08-01T04:22:58;100697.94;;;25.30;57.24
71559;BME280;59382;43.852;25.952;2023-08-01T04:25:24;100708.09;;;25.35;56.99
71559;BME280;59382;43.852;25.952;2023-08-01T04:27:52;100722.63;;;25.40;56.89
71559;BME280;59382;43.852;25.952;2023-08-01T04:30:17;100718.00;;;25.36;56.60
71559;BME280;59382;43.852;25.952;2023-08-01T04:32:43;100708.72;;;25.32;56.73
71559;BME280;59382;43.852;25.952;2023-08-01T04:35:08;100724.59;;;25.40;56.87
71559;BME280;59382;43.852;25.952;2023-08-01T04:37:34;100726.22;;;25.41;56.47
71559;BME280;59382;43.852;25.952;2023-08-01T04:39:59;100727.84;;;25.42;56.54
71559;BME280;59382;43.852;25.952;2023-08-01T04:42:26;100710.44;;;25.28;56.38
71559;BME280;59382;43.852;25.952;2023-08-01T04:44:52;100725.59;;;25.44;56.74
71559;BME280;59382;43.852;25.952;2023-08-01T04:47:18;100710.25;;;25.38;56.41
71559;BME280;59382;43.852;25.952;2023-08-01T04:49:44;100726.72;;;25.43;56.58
71559;BME280;59382;43.852;25.952;2023-08-01T04:52:10;100724.16;;;25.33;56.84
71559;BME280;59382;43.852;25.952;2023-08-01T04:54:35;100737.03;;;25.37;56.73
71559;BME280;59382;43.852;25.952;2023-08-01T04:57:01;100735.13;;;25.38;57.11
71559;BME280;59382;43.852;25.952;2023-08-01T04:59:26;100736.66;;;25.44;57.17
71559;BME280;59382;43.852;25.952;2023-08-01T05:01:52;100717.81;;;25.46;57.26
71559;BME280;59382;43.852;25.952;2023-08-01T05:04:17;100730.69;;;25.64;56.78
71559;BME280;59382;43.852;25.952;2023-08-01T05:06:43;100732.69;;;25.72;56.58
71559;BME280;59382;43.852;25.952;2023-08-01T05:09:08;100738.59;;;25.79;56.46
71559;BME280;59382;43.852;25.952;2023-08-01T05:11:34;100730.84;;;25.81;56.57
71559;BME280;59382;43.852;25.952;2023-08-01T05:13:59;100739.03;;;25.86;56.53
71559;BME280;59382;43.852;25.952;2023-08-01T05:16:25;100736.63;;;25.93;56.63
71559;BME280;59382;43.852;25.952;2023-08-01T05:18:50;100734.06;;;25.96;56.46
71559;BME280;59382;43.852;25.952;2023-08-01T05:21:16;100728.53;;;25.96;56.42
71559;BME280;59382;43.852;25.952;2023-08-01T05:23:41;100743.09;;;26.02;56.37
71559;BME280;59382;43.852;25.952;2023-08-01T05:26:07;100748.41;;;25.98;56.34
71559;BME280;59382;43.852;25.952;2023-08-01T05:28:32;100751.69;;;25.87;56.81
71559;BME280;59382;43.852;25.952;2023-08-01T05:30:58;100747.53;;;25.76;56.95
71559;BME280;59382;43.852;25.952;2023-08-01T05:33:23;100765.25;;;25.75;57.35
71559;BME280;59382;43.852;25.952;2023-08-01T05:35:49;100752.94;;;25.81;57.23
71559;BME280;59382;43.852;25.952;2023-08-01T05:38:15;100762.44;;;26.02;56.75
71559;BME280;59382;43.852;25.952;2023-08-01T05:40:41;100764.97;;;26.12;56.93
71559;BME280;59382;43.852;25.952;2023-08-01T05:43:16;100761.84;;;26.27;56.45
71559;BME280;59382;43.852;25.952;2023-08-01T05:45:42;100761.97;;;26.44;56.35
71559;BME280;59382;43.852;25.952;2023-08-01T05:48:08;100752.66;;;26.62;55.79
71559;BME280;59382;43.852;25.952;2023-08-01T05:50:33;100744.78;;;26.77;55.53
71559;BME280;59382;43.852;25.952;2023-08-01T05:52:59;100748.94;;;26.97;55.25
71559;BME280;59382;43.852;25.952;2023-08-01T05:55:24;100764.00;;;27.13;55.14
71559;BME280;59382;43.852;25.952;2023-08-01T05:57:50;100751.78;;;27.14;54.82
71559;BME280;59382;43.852;25.952;2023-08-01T06:00:18;100751.44;;;27.07;55.28
71559;BME280;59382;43.852;25.952;2023-08-01T06:02:47;100744.41;;;27.01;55.40
71559;BME280;59382;43.852;25.952;2023-08-01T06:05:12;100733.03;;;27.11;55.48
71559;BME280;59382;43.852;25.952;2023-08-01T06:07:38;100737.38;;;27.34;55.06
71559;BME280;59382;43.852;25.952;2023-08-01T06:10:04;100735.78;;;27.59;54.61
71559;BME280;59382;43.852;25.952;2023-08-01T06:12:29;100742.09;;;27.98;54.24
71559;BME280;59382;43.852;25.952;2023-08-01T06:14:55;100749.41;;;28.28;53.80
71559;BME280;59382;43.852;25.952;2023-08-01T06:17:21;100741.09;;;28.45;53.71
71559;BME280;59382;43.852;25.952;2023-08-01T06:19:46;100742.16;;;28.79;53.23
71559;BME280;59382;43.852;25.952;2023-08-01T06:22:13;100731.44;;;29.15;52.54
71559;BME280;59382;43.852;25.952;2023-08-01T06:24:38;100726.91;;;29.60;51.43
71559;BME280;59382;43.852;25.952;2023-08-01T06:27:04;100723.00;;;30.02;50.76
71559;BME280;59382;43.852;25.952;2023-08-01T06:29:30;100717.84;;;30.33;49.88
71559;BME280;59382;43.852;25.952;2023-08-01T06:31:56;100725.47;;;30.69;49.44
71559;BME280;59382;43.852;25.952;2023-08-01T06:34:22;100724.03;;;30.95;48.59
71559;BME280;59382;43.852;25.952;2023-08-01T06:36:47;100708.38;;;31.15;48.59
71559;BME280;59382;43.852;25.952;2023-08-01T06:39:13;100724.22;;;31.47;48.13
71559;BME280;59382;43.852;25.952;2023-08-01T06:41:39;100728.94;;;31.70;47.50
71559;BME280;59382;43.852;25.952;2023-08-01T06:44:05;100727.06;;;31.86;47.33
71559;BME280;59382;43.852;25.952;2023-08-01T06:46:33;100713.59;;;31.88;47.05
71559;BME280;59382;43.852;25.952;2023-08-01T06:48:59;100713.91;;;31.99;46.36
71559;BME280;59382;43.852;25.952;2023-08-01T06:51:25;100728.72;;;32.15;46.59
71559;BME280;59382;43.852;25.952;2023-08-01T06:53:50;100711.34;;;32.21;45.86
71559;BME280;59382;43.852;25.952;2023-08-01T06:56:16;100732.72;;;32.42;45.59
71559;BME280;59382;43.852;25.952;2023-08-01T06:58:41;100720.22;;;32.51;45.14
71559;BME280;59382;43.852;25.952;2023-08-01T07:01:07;100723.31;;;32.62;45.20
71559;BME280;59382;43.852;25.952;2023-08-01T07:03:32;100717.00;;;32.65;44.60
71559;BME280;59382;43.852;25.952;2023-08-01T07:05:58;100725.75;;;32.79;44.49
71559;BME280;59382;43.852;25.952;2023-08-01T07:08:23;100719.88;;;32.68;44.56
71559;BME280;59382;43.852;25.952;2023-08-01T07:10:51;100719.97;;;32.72;44.17
71559;BME280;59382;43.852;25.952;2023-08-01T07:13:17;100727.81;;;32.82;44.28
71559;BME280;59382;43.852;25.952;2023-08-01T07:15:44;100702.47;;;32.75;44.50
71559;BME280;59382;43.852;25.952;2023-08-01T07:18:10;100704.28;;;32.83;44.05
71559;BME280;59382;43.852;25.952;2023-08-01T07:20:36;100724.72;;;32.99;43.64
71559;BME280;59382;43.852;25.952;2023-08-01T07:23:02;100716.59;;;32.94;43.76
71559;BME280;59382;43.852;25.952;2023-08-01T07:25:27;100698.91;;;32.90;43.81
71559;BME280;59382;43.852;25.952;2023-08-01T07:27:53;100712.81;;;33.02;43.53
71559;BME280;59382;43.852;25.952;2023-08-01T07:30:18;100720.13;;;33.06;43.52
71559;BME280;59382;43.852;25.952;2023-08-01T07:32:44;100715.88;;;33.12;43.19
71559;BME280;59382;43.852;25.952;2023-08-01T07:35:10;100699.34;;;33.07;43.09
71559;BME280;59382;43.852;25.952;2023-08-01T07:37:35;100710.88;;;33.21;42.58
71559;BME280;59382;43.852;25.952;2023-08-01T07:40:06;100710.34;;;33.16;42.91
71559;BME280;59382;43.852;25.952;2023-08-01T07:42:32;100705.94;;;33.15;42.53
71559;BME280;59382;43.852;25.952;2023-08-01T07:44:57;100705.78;;;33.08;42.66
71559;BME280;59382;43.852;25.952;2023-08-01T07:47:22;100703.25;;;33.03;42.62
71559;BME280;59382;43.852;25.952;2023-08-01T07:49:49;100705.50;;;32.97;42.84
71559;BME280;59382;43.852;25.952;2023-08-01T07:52:16;100673.81;;;32.78;42.24
71559;BME280;59382;43.852;25.952;2023-08-01T07:54:41;100719.22;;;32.87;42.62
71559;BME280;59382;43.852;25.952;2023-08-01T07:57:07;100708.97;;;32.79;42.81
71559;BME280;59382;43.852;25.952;2023-08-01T07:59:32;100708.25;;;32.82;42.63
71559;BME280;59382;43.852;25.952;2023-08-01T08:01:58;100701.34;;;32.91;42.37
71559;BME280;59382;43.852;25.952;2023-08-01T08:04:23;100693.22;;;32.86;42.16
71559;BME280;59382;43.852;25.952;2023-08-01T08:06:49;100700.22;;;32.80;42.78
71559;BME280;59382;43.852;25.952;2023-08-01T08:09:14;100693.50;;;32.97;42.31
71559;BME280;59382;43.852;25.952;2023-08-01T08:11:43;100700.91;;;33.05;42.04
71559;BME280;59382;43.852;25.952;2023-08-01T08:14:09;100687.34;;;33.07;41.67
71559;BME280;59382;43.852;25.952;2023-08-01T08:16:36;100683.81;;;33.10;41.45
71559;BME280;59382;43.852;25.952;2023-08-01T08:19:02;100693.09;;;33.14;41.26
71559;BME280;59382;43.852;25.952;2023-08-01T08:21:27;100700.78;;;33.17;41.21
71559;BME280;59382;43.852;25.952;2023-08-01T08:23:53;100695.63;;;33.19;41.38
71559;BME280;59382;43.852;25.952;2023-08-01T08:26:19;100690.78;;;33.16;41.56
71559;BME280;59382;43.852;25.952;2023-08-01T08:28:44;100684.19;;;33.24;41.31
71559;BME280;59382;43.852;25.952;2023-08-01T08:31:10;100696.91;;;33.37;40.80
71559;BME280;59382;43.852;25.952;2023-08-01T08:33:36;100691.31;;;33.37;41.01
71559;BME280;59382;43.852;25.952;2023-08-01T08:36:05;100696.91;;;33.37;41.01
71559;BME280;59382;43.852;25.952;2023-08-01T08:38:31;100687.22;;;33.34;40.71
71559;BME280;59382;43.852;25.952;2023-08-01T08:43:23;100673.16;;;33.31;40.40
71559;BME280;59382;43.852;25.952;2023-08-01T08:45:49;100647.63;;;33.17;40.25
71559;BME280;59382;43.852;25.952;2023-08-01T08:48:18;100679.84;;;33.42;40.05
71559;BME280;59382;43.852;25.952;2023-08-01T08:50:46;100668.34;;;33.47;39.88
71559;BME280;59382;43.852;25.952;2023-08-01T08:53:11;100675.75;;;33.55;39.81
71559;BME280;59382;43.852;25.952;2023-08-01T08:55:41;100672.50;;;33.53;39.11
71559;BME280;59382;43.852;25.952;2023-08-01T08:58:07;100666.09;;;33.52;39.44
71559;BME280;59382;43.852;25.952;2023-08-01T09:00:36;100676.47;;;33.52;38.96
71559;BME280;59382;43.852;25.952;2023-08-01T09:03:03;100664.81;;;33.50;38.77
71559;BME280;59382;43.852;25.952;2023-08-01T09:05:32;100664.22;;;33.41;38.73
71559;BME280;59382;43.852;25.952;2023-08-01T09:08:01;100665.66;;;33.35;38.95
71559;BME280;59382;43.852;25.952;2023-08-01T09:10:32;100661.69;;;33.36;39.01
71559;BME280;59382;43.852;25.952;2023-08-01T09:12:57;100653.13;;;33.44;38.85
71559;BME280;59382;43.852;25.952;2023-08-01T09:15:25;100660.50;;;33.52;38.50
71559;BME280;59382;43.852;25.952;2023-08-01T09:17:54;100643.28;;;33.50;38.76
71559;BME280;59382;43.852;25.952;2023-08-01T09:20:29;100647.03;;;33.58;38.61
71559;BME280;59382;43.852;25.952;2023-08-01T09:22:55;100647.31;;;33.53;38.63
71559;BME280;59382;43.852;25.952;2023-08-01T09:25:31;100643.63;;;33.49;38.58
71559;BME280;59382;43.852;25.952;2023-08-01T09:27:58;100644.50;;;33.53;38.49
71559;BME280;59382;43.852;25.952;2023-08-01T09:30:23;100637.16;;;33.45;38.63
71559;BME280;59382;43.852;25.952;2023-08-01T09:32:56;100645.25;;;33.50;37.79
71559;BME280;59382;43.852;25.952;2023-08-01T09:35:24;100633.91;;;33.43;38.13
71559;BME280;59382;43.852;25.952;2023-08-01T09:37:50;100633.91;;;33.43;38.19
71559;BME280;59382;43.852;25.952;2023-08-01T09:40:18;100631.38;;;33.38;38.38
71559;BME280;59382;43.852;25.952;2023-08-01T09:42:44;100621.63;;;33.32;38.71
71559;BME280;59382;43.852;25.952;2023-08-01T09:45:14;100635.50;;;33.44;38.44
71559;BME280;59382;43.852;25.952;2023-08-01T09:47:40;100631.38;;;33.38;38.47
71559;BME280;59382;43.852;25.952;2023-08-01T09:50:06;100638.03;;;33.49;37.85
71559;BME280;59382;43.852;25.952;2023-08-01T09:52:32;100630.75;;;33.44;38.15
71559;BME280;59382;43.852;25.952;2023-08-01T09:54:58;100625.97;;;33.45;37.97
71559;BME280;59382;43.852;25.952;2023-08-01T09:57:28;100625.59;;;33.46;38.24
71559;BME280;59382;43.852;25.952;2023-08-01T09:59:56;100621.97;;;33.46;38.08
71559;BME280;59382;43.852;25.952;2023-08-01T10:02:24;100624.41;;;33.47;38.07
71559;BME280;59382;43.852;25.952;2023-08-01T10:04:53;100608.81;;;33.31;38.13
71559;BME280;59382;43.852;25.952;2023-08-01T10:07:29;100610.53;;;33.35;38.17
71559;BME280;59382;43.852;25.952;2023-08-01T10:09:58;100602.88;;;33.32;38.36
71559;BME280;59382;43.852;25.952;2023-08-01T10:12:26;100600.88;;;33.33;37.89
71559;BME280;59382;43.852;25.952;2023-08-01T10:14:52;100600.88;;;33.33;37.97
71559;BME280;59382;43.852;25.952;2023-08-01T10:17:19;100596.66;;;33.39;37.86
71559;BME280;59382;43.852;25.952;2023-08-01T10:19:46;100610.34;;;33.44;38.03
71559;BME280;59382;43.852;25.952;2023-08-01T10:22:14;100601.06;;;33.40;37.82
71559;BME280;59382;43.852;25.952;2023-08-01T10:24:41;100598.81;;;33.30;37.90
71559;BME280;59382;43.852;25.952;2023-08-01T10:27:15;100569.91;;;33.07;38.09
71559;BME280;59382;43.852;25.952;2023-08-01T10:29:44;100590.09;;;33.16;37.86
71559;BME280;59382;43.852;25.952;2023-08-01T10:32:10;100597.59;;;33.12;38.32
71559;BME280;59382;43.852;25.952;2023-08-01T10:34:36;100589.94;;;33.09;38.12
71559;BME280;59382;43.852;25.952;2023-08-01T10:37:01;100588.34;;;33.08;37.88
71559;BME280;59382;43.852;25.952;2023-08-01T10:39:28;100579.78;;;33.01;38.15
71559;BME280;59382;43.852;25.952;2023-08-01T10:41:58;100571.22;;;32.94;37.96
71559;BME280;59382;43.852;25.952;2023-08-01T10:44:25;100578.16;;;33.00;38.31
71559;BME280;59382;43.852;25.952;2023-08-01T10:47:00;100576.09;;;32.97;38.15
71559;BME280;59382;43.852;25.952;2023-08-01T10:49:52;100577.72;;;32.82;37.86
71559;BME280;59382;43.852;25.952;2023-08-01T10:52:27;100568.34;;;32.75;38.50
71559;BME280;59382;43.852;25.952;2023-08-01T10:54:57;100570.47;;;32.81;38.55
71559;BME280;59382;43.852;25.952;2023-08-01T10:57:24;100551.75;;;32.82;38.42
71559;BME280;59382;43.852;25.952;2023-08-01T10:59:49;100561.22;;;32.93;38.07
71559;BME280;59382;43.852;25.952;2023-08-01T11:02:22;100557.78;;;32.84;37.82
71559;BME280;59382;43.852;25.952;2023-08-01T11:05:18;100556.59;;;32.85;38.03
71559;BME280;59382;43.852;25.952;2023-08-01T11:07:53;100555.09;;;32.87;37.73
71559;BME280;59382;43.852;25.952;2023-08-01T11:10:20;100543.19;;;32.90;38.07
71559;BME280;59382;43.852;25.952;2023-08-01T11:12:45;100530.63;;;32.84;37.94
71559;BME280;59382;43.852;25.952;2023-08-01T11:15:13;100537.84;;;32.85;38.04
71559;BME280;59382;43.852;25.952;2023-08-01T11:17:40;100526.59;;;32.82;37.80
71559;BME280;59382;43.852;25.952;2023-08-01T11:20:10;100530.28;;;32.86;37.64
71559;BME280;59382;43.852;25.952;2023-08-01T11:22:55;100529.03;;;32.83;37.87
71559;BME280;59382;43.852;25.952;2023-08-01T11:25:36;100511.28;;;32.76;37.31
71559;BME280;59382;43.852;25.952;2023-08-01T11:28:08;100505.22;;;32.74;37.67
71559;BME280;59382;43.852;25.952;2023-08-01T11:30:34;100509.94;;;32.70;37.86
71559;BME280;59382;43.852;25.952;2023-08-01T11:33:00;100508.38;;;32.72;38.36
71559;BME280;59382;43.852;25.952;2023-08-01T11:35:27;100491.22;;;32.55;37.77
71559;BME280;59382;43.852;25.952;2023-08-01T11:37:52;100509.94;;;32.70;37.88
71559;BME280;59382;43.852;25.952;2023-08-01T11:40:18;100498.88;;;32.58;37.57
71559;BME280;59382;43.852;25.952;2023-08-01T11:42:49;100506.63;;;32.64;37.81
71559;BME280;59382;43.852;25.952;2023-08-01T11:45:16;100496.06;;;32.58;37.92
71559;BME280;59382;43.852;25.952;2023-08-01T11:47:46;100499.69;;;32.58;38.18
71559;BME280;59382;43.852;25.952;2023-08-01T11:50:20;100497.72;;;32.59;37.76
71559;BME280;59382;43.852;25.952;2023-08-01T11:52:47;100491.22;;;32.55;37.96
71559;BME280;59382;43.852;25.952;2023-08-01T11:55:39;100488.63;;;32.46;37.49
71559;BME280;59382;43.852;25.952;2023-08-01T11:58:05;100458.59;;;32.28;38.01
71559;BME280;59382;43.852;25.952;2023-08-01T12:00:30;100479.72;;;32.41;38.07
71559;BME280;59382;43.852;25.952;2023-08-01T12:03:09;100476.38;;;32.35;37.75
71559;BME280;59382;43.852;25.952;2023-08-01T12:05:40;100473.91;;;32.34;38.08
71559;BME280;59382;43.852;25.952;2023-08-01T12:08:14;100475.59;;;32.35;37.70
71559;BME280;59382;43.852;25.952;2023-08-01T12:10:44;100478.81;;;32.37;38.01
71559;BME280;59382;43.852;25.952;2023-08-01T12:13:24;100466.25;;;32.31;37.93
71559;BME280;59382;43.852;25.952;2023-08-01T12:15:51;100474.41;;;32.36;38.01
71559;BME280;59382;43.852;25.952;2023-08-01T12:18:24;100451.88;;;32.29;37.88
71559;BME280;59382;43.852;25.952;2023-08-01T12:20:50;100460.81;;;32.34;37.59
71559;BME280;59382;43.852;25.952;2023-08-01T12:23:16;100459.72;;;32.39;38.15
71559;BME280;59382;43.852;25.952;2023-08-01T12:25:41;100465.03;;;32.44;38.12
71559;BME280;59382;43.852;25.952;2023-08-01T12:28:07;100470.25;;;32.45;37.67
71559;BME280;59382;43.852;25.952;2023-08-01T12:30:32;100453.41;;;32.42;37.55
71559;BME280;59382;43.852;25.952;2023-08-01T12:32:58;100459.16;;;32.49;37.33
71559;BME280;59382;43.852;25.952;2023-08-01T12:35:23;100443.69;;;32.36;36.90
71559;BME280;59382;43.852;25.952;2023-08-01T12:37:49;100451.69;;;32.37;37.06
71559;BME280;59382;43.852;25.952;2023-08-01T12:40:17;100449.13;;;32.32;37.47